Time;durP1;ratioP1;P1;durP2;ratioP2;P2;SDS_P1;SDS_P2;PMS_P1;PMS_P2;Temp;Humidity;BMP_temperature;BMP_pressure;BME280_temperature;BME280_humidity;BME280_pressure;Samples;Min_cycle;Max_cycle;Signal;HPM_P1;HPM_P2
2021/01/04 04:22:31;;;;;;;19.58;7.32;;;24.90;64.20;;;;;;6345269;22;20081;-73
2021/01/04 04:24:57;;;;;;;16.83;5.60;;;24.90;64.20;;;;;;6333260;22;20010;-73
2021/01/04 04:27:24;;;;;;;19.45;6.22;;;24.90;64.20;;;;;;6332533;22;20044;-72
2021/01/04 04:29:50;;;;;;;20.92;5.13;;;24.90;64.30;;;;;;6334666;22;19999;-70
2021/01/04 04:32:18;;;;;;;17.00;7.32;;;24.90;64.30;;;;;;6333649;22;20006;-71
2021/01/04 04:34:45;;;;;;;24.88;11.50;;;24.90;64.40;;;;;;6334890;22;19998;-73
2021/01/04 04:37:11;;;;;;;20.45;10.48;;;24.90;64.40;;;;;;6333751;22;19999;-73
2021/01/04 04:39:38;;;;;;;23.88;8.38;;;24.90;64.40;;;;;;6335415;22;20329;-72
2021/01/04 04:42:12;;;;;;;20.08;6.90;;;24.90;64.50;;;;;;6336088;22;20011;-73
2021/01/04 04:44:50;;;;;;;12.23;6.13;;;25.00;64.50;;;;;;6334493;22;20341;-72
2021/01/04 04:47:44;;;;;;;19.67;5.82;;;25.00;64.50;;;;;;6335745;22;20006;-72
2021/01/04 04:50:16;;;;;;;20.48;5.38;;;24.90;64.50;;;;;;6334576;22;19999;-72
2021/01/04 04:53:10;;;;;;;17.65;5.03;;;24.90;64.50;;;;;;6334499;22;20075;-72
2021/01/04 04:55:54;;;;;;;15.48;5.25;;;25.00;64.60;;;;;;6335635;22;19999;-72
2021/01/04 04:58:41;;;;;;;15.15;5.20;;;25.00;64.50;;;;;;6332534;22;20378;-72
2021/01/04 05:01:23;;;;;;;23.08;6.38;;;25.00;64.60;;;;;;6333364;22;19999;-73
2021/01/04 05:04:23;;;;;;;17.20;5.35;;;25.00;64.60;;;;;;6335836;22;20074;-73
2021/01/04 05:06:55;;;;;;;17.55;6.18;;;25.00;64.60;;;;;;6333271;22;20084;-73
2021/01/04 05:09:21;;;;;;;15.98;4.80;;;25.00;64.60;;;;;;6335313;22;20322;-73
2021/01/04 05:12:03;;;;;;;19.70;5.05;;;25.00;64.60;;;;;;6334451;22;19999;-73
2021/01/04 05:14:31;;;;;;;18.85;5.07;;;25.00;64.60;;;;;;6334994;22;20330;-73
2021/01/04 05:17:27;;;;;;;18.73;5.00;;;25.00;64.60;;;;;;6335120;22;19998;-73
2021/01/04 05:20:24;;;;;;;13.13;4.45;;;25.00;64.60;;;;;;6334142;22;20433;-73
2021/01/04 05:23:16;;;;;;;22.38;5.68;;;25.00;64.60;;;;;;6334586;22;20015;-72
2021/01/04 05:26:04;;;;;;;25.83;6.85;;;25.10;65.30;;;;;;6335730;22;20115;-73
2021/01/04 05:28:51;;;;;;;20.88;5.60;;;25.10;65.50;;;;;;6335415;22;20091;-75
2021/01/04 05:31:40;;;;;;;38.22;8.45;;;25.00;66.30;;;;;;6271544;22;20003;-74
2021/01/04 05:34:31;;;;;;;26.08;6.07;;;24.90;66.40;;;;;;6335437;22;20056;-74
2021/01/04 05:37:16;;;;;;;26.13;5.75;;;24.80;66.70;;;;;;6333865;22;20444;-73
2021/01/04 05:39:49;;;;;;;45.55;29.40;;;24.80;67.00;;;;;;6335629;22;20007;-76
2021/01/04 05:42:31;;;;;;;35.95;21.88;;;24.80;67.20;;;;;;6334279;22;20411;-76
2021/01/04 05:45:01;;;;;;;30.42;15.32;;;24.70;67.40;;;;;;6334092;22;20068;-76
2021/01/04 05:47:38;;;;;;;22.50;6.60;;;24.70;67.50;;;;;;6335208;22;20904;-76
2021/01/04 05:50:17;;;;;;;22.77;6.03;;;24.80;67.60;;;;;;6333721;22;20006;-76
2021/01/04 05:52:45;;;;;;;23.48;6.95;;;24.90;67.50;;;;;;6334292;22;20010;-74
2021/01/04 05:55:15;;;;;;;19.10;6.63;;;24.80;67.40;;;;;;6334823;22;20369;-75
2021/01/04 05:57:55;;;;;;;19.35;6.70;;;24.90;67.50;;;;;;6334328;22;20034;-74
2021/01/04 06:00:33;;;;;;;25.25;6.40;;;24.90;67.50;;;;;;6335216;22;20550;-75
2021/01/04 06:03:13;;;;;;;19.60;4.57;;;24.90;67.50;;;;;;6332022;22;20014;-76
2021/01/04 06:05:40;;;;;;;22.52;7.10;;;25.00;67.40;;;;;;6334890;22;20011;-74
2021/01/04 06:08:19;;;;;;;19.63;4.85;;;25.00;68.00;;;;;;6334144;22;20039;-74
2021/01/04 06:10:46;;;;;;;21.80;7.68;;;25.00;67.30;;;;;;6333654;22;20005;-74
2021/01/04 06:13:20;;;;;;;18.75;5.13;;;25.10;67.20;;;;;;6334548;22;20003;-75
2021/01/04 06:15:47;;;;;;;22.85;6.38;;;25.20;66.90;;;;;;6332543;22;20003;-73
2021/01/04 06:18:26;;;;;;;39.60;23.60;;;25.20;66.80;;;;;;6334552;22;20073;-75
2021/01/04 06:21:34;;;;;;;31.92;19.58;;;25.30;66.90;;;;;;6332006;22;20010;-73
2021/01/04 06:24:03;;;;;;;21.88;8.88;;;25.40;67.40;;;;;;6264395;22;20018;-73
2021/01/04 06:26:30;;;;;;;29.98;6.07;;;25.40;67.00;;;;;;6334441;22;20447;-74
2021/01/04 06:29:05;;;;;;;14.30;5.28;;;25.60;67.00;;;;;;6333870;22;20044;-74
2021/01/04 06:31:53;;;;;;;;;;;25.60;66.60;;;;;;6333192;22;20486;-75
2021/01/04 06:34:19;;;;;;;18.95;4.57;;;25.70;66.30;;;;;;6334950;22;19899;-75
2021/01/04 06:36:51;;;;;;;16.52;5.70;;;25.80;66.00;;;;;;6333765;22;20440;-74
2021/01/04 06:39:31;;;;;;;17.70;5.90;;;25.80;65.80;;;;;;6334575;22;20030;-75
2021/01/04 06:42:19;;;;;;;17.95;4.88;;;25.80;65.90;;;;;;6331534;22;20013;-75
2021/01/04 06:45:01;;;;;;;26.58;6.63;;;26.00;65.60;;;;;;6334370;22;20017;-78
2021/01/04 06:47:46;;;;;;;15.52;5.18;;;26.10;65.30;;;;;;6334601;22;20077;-76
2021/01/04 06:50:18;;;;;;;16.53;5.13;;;26.10;65.00;;;;;;6333124;22;20029;-77
2021/01/04 06:53:15;;;;;;;20.02;5.80;;;26.20;64.80;;;;;;6334305;22;20223;-76
2021/01/04 06:56:19;;;;;;;18.33;5.78;;;26.30;64.50;;;;;;6334025;22;19995;-73
2021/01/04 06:59:22;;;;;;;17.67;4.47;;;26.30;64.30;;;;;;6333380;22;20007;-73
2021/01/04 07:02:21;;;;;;;12.43;5.13;;;26.50;64.30;;;;;;6334760;22;19999;-74
2021/01/04 07:05:11;;;;;;;20.05;6.10;;;26.60;64.30;;;;;;6334618;22;20003;-75
2021/01/04 07:07:50;;;;;;;23.00;4.90;;;26.70;63.90;;;;;;6333076;22;20041;-74
2021/01/04 07:10:30;;;;;;;16.85;4.38;;;26.80;64.30;;;;;;6333188;22;20018;-75
2021/01/04 07:13:02;;;;;;;22.02;5.47;;;26.90;63.90;;;;;;6334679;22;20449;-75
2021/01/04 07:15:31;;;;;;;22.05;5.32;;;27.00;63.40;;;;;;6333667;22;19991;-75
2021/01/04 07:18:20;;;;;;;16.23;4.90;;;27.10;62.90;;;;;;6334499;22;20124;-75
